createdAt,value
2018-06-12T00:00:09.577Z,99.99
2018-06-12T00:01:09.598Z,99.99
2018-06-12T00:02:09.621Z,99.99
2018-06-12T00:03:09.646Z,99.99
2018-06-12T00:04:09.666Z,99.99
2018-06-12T00:05:09.693Z,99.99
2018-06-12T00:06:09.707Z,99.99
2018-06-12T00:07:09.730Z,99.99
2018-06-12T00:08:09.751Z,99.99
2018-06-12T00:09:09.773Z,99.99
2018-06-12T00:10:09.797Z,99.99
2018-06-12T00:11:09.816Z,99.99
2018-06-12T00:12:09.839Z,99.99
2018-06-12T00:13:09.860Z,99.99
2018-06-12T00:14:09.882Z,99.99
2018-06-12T00:15:09.903Z,99.99
2018-06-12T00:16:09.926Z,99.99
2018-06-12T00:17:09.949Z,99.99
2018-06-12T00:18:09.971Z,99.99
2018-06-12T00:19:09.994Z,99.99
2018-06-12T00:20:10.016Z,99.99
2018-06-12T00:21:10.035Z,99.99
2018-06-12T00:22:10.057Z,99.99
2018-06-12T00:23:10.078Z,99.99
2018-06-12T00:24:10.103Z,99.99
2018-06-12T00:25:10.121Z,99.99
2018-06-12T00:26:10.144Z,99.99
2018-06-12T00:27:10.167Z,99.99
2018-06-12T00:28:10.188Z,99.99
2018-06-12T00:29:10.209Z,99.99
2018-06-12T00:30:10.235Z,99.99
2018-06-12T00:31:10.253Z,99.99
2018-06-12T00:32:10.278Z,99.99
2018-06-12T00:33:10.797Z,99.99
2018-06-12T00:34:10.323Z,99.99
2018-06-12T00:35:10.343Z,99.99
2018-06-12T00:36:10.365Z,99.99
2018-06-12T00:37:10.383Z,99.99
2018-06-12T00:38:10.406Z,99.99
2018-06-12T00:39:10.429Z,99.99
2018-06-12T00:40:10.454Z,99.99
2018-06-12T00:41:10.469Z,99.99
2018-06-12T00:42:10.495Z,99.99
2018-06-12T00:43:10.520Z,99.99
2018-06-12T00:44:10.541Z,99.99
2018-06-12T00:45:10.556Z,99.99
2018-06-12T00:46:10.579Z,99.99
2018-06-12T00:47:10.602Z,99.99
2018-06-12T00:48:10.625Z,99.99
2018-06-12T00:49:10.642Z,99.99
2018-06-12T00:50:10.667Z,99.99
2018-06-12T00:51:10.687Z,99.99
2018-06-12T00:52:10.708Z,99.99
2018-06-12T00:53:10.732Z,99.99
2018-06-12T00:54:10.751Z,99.99
2018-06-12T00:55:10.772Z,99.99
2018-06-12T00:56:10.798Z,99.99
2018-06-12T00:57:10.817Z,99.99
2018-06-12T00:58:10.837Z,99.99
2018-06-12T00:59:10.909Z,99.99
2018-06-12T01:00:10.882Z,99.99
2018-06-12T01:01:10.903Z,99.99
2018-06-12T01:02:10.928Z,99.99
2018-06-12T01:03:10.947Z,99.99
2018-06-12T01:04:10.970Z,99.99
2018-06-12T01:05:10.988Z,99.99
2018-06-12T01:06:11.010Z,99.99
2018-06-12T01:07:11.031Z,99.99
2018-06-12T01:08:11.053Z,99.99
2018-06-12T01:09:11.073Z,99.99
2018-06-12T01:10:11.098Z,99.99
2018-06-12T01:11:11.117Z,99.99
2018-06-12T01:12:11.141Z,99.99
2018-06-12T01:13:11.162Z,99.99
2018-06-12T01:14:11.181Z,99.99
2018-06-12T01:15:11.206Z,99.99
2018-06-12T01:16:11.228Z,99.99
2018-06-12T01:17:11.246Z,99.99
2018-06-12T01:18:11.271Z,99.99
2018-06-12T01:19:11.292Z,99.99
2018-06-12T01:20:11.314Z,99.99
2018-06-12T01:21:11.340Z,99.99
2018-06-12T01:22:11.356Z,99.99
2018-06-12T01:23:11.378Z,99.99
2018-06-12T01:24:11.397Z,99.99
2018-06-12T01:25:11.421Z,99.99
2018-06-12T01:26:11.440Z,99.99
2018-06-12T01:27:11.465Z,99.99
2018-06-12T01:28:11.485Z,99.99
2018-06-12T01:29:11.506Z,99.99
2018-06-12T01:30:11.529Z,99.99
2018-06-12T01:31:11.549Z,99.99
2018-06-12T01:32:11.571Z,99.99
2018-06-12T01:33:11.940Z,99.99
2018-06-12T01:34:11.661Z,99.99
2018-06-12T01:35:11.636Z,99.99
2018-06-12T01:36:11.654Z,99.99
2018-06-12T01:37:11.725Z,99.99
2018-06-12T01:38:11.699Z,99.99
2018-06-12T01:39:11.720Z,99.99
2018-06-12T01:40:11.748Z,99.99
2018-06-12T01:41:11.761Z,99.99
2018-06-12T01:42:11.783Z,99.99
2018-06-12T01:43:11.806Z,99.99
2018-06-12T01:44:11.825Z,99.99
2018-06-12T01:45:11.846Z,99.99
2018-06-12T01:46:11.874Z,99.99
2018-06-12T01:47:11.890Z,99.99
2018-06-12T01:48:11.913Z,99.99
2018-06-12T01:49:11.929Z,99.99
2018-06-12T01:50:11.956Z,99.99
2018-06-12T01:51:11.980Z,99.99
2018-06-12T01:52:11.997Z,99.99
2018-06-12T01:53:12.016Z,99.99
2018-06-12T01:54:12.038Z,99.99
2018-06-12T01:55:12.058Z,99.99
2018-06-12T01:56:12.079Z,99.99
2018-06-12T01:57:12.101Z,99.99
2018-06-12T01:58:12.120Z,99.99
2018-06-12T01:59:12.141Z,99.99
2018-06-12T02:00:12.169Z,99.99
2018-06-12T02:01:12.183Z,99.99
2018-06-12T02:02:12.204Z,99.99
2018-06-12T02:03:12.227Z,99.99
2018-06-12T02:04:12.247Z,99.99
2018-06-12T02:05:12.271Z,99.99
2018-06-12T02:06:12.291Z,99.99
2018-06-12T02:07:12.314Z,99.99
2018-06-12T02:08:12.332Z,99.99
2018-06-12T02:09:12.350Z,99.99
2018-06-12T02:10:12.375Z,99.99
2018-06-12T02:11:12.395Z,99.99
2018-06-12T02:12:12.418Z,99.99
2018-06-12T02:13:12.437Z,99.99
2018-06-12T02:14:12.456Z,99.99
2018-06-12T02:15:12.477Z,99.99
2018-06-12T02:16:12.499Z,99.99
2018-06-12T02:17:12.522Z,99.99
2018-06-12T02:18:12.542Z,99.99
2018-06-12T02:19:12.564Z,99.99
2018-06-12T02:20:12.585Z,99.99
2018-06-12T02:21:12.604Z,99.99
2018-06-12T02:22:12.622Z,99.99
2018-06-12T02:23:12.648Z,99.99
2018-06-12T02:24:12.669Z,99.99
2018-06-12T02:25:12.688Z,99.99
2018-06-12T02:26:12.709Z,99.99
2018-06-12T02:27:12.731Z,99.99
2018-06-12T02:28:12.752Z,99.99
2018-06-12T02:29:12.770Z,99.99
2018-06-12T02:30:12.793Z,99.99
2018-06-12T02:31:12.815Z,99.99
2018-06-12T02:32:12.836Z,99.99
2018-06-12T02:33:13.856Z,99.99
2018-06-12T02:34:12.874Z,99.99
2018-06-12T02:35:12.896Z,99.99
2018-06-12T02:36:12.919Z,99.99
2018-06-12T02:37:12.940Z,99.99
2018-06-12T02:38:12.960Z,99.99
2018-06-12T02:39:12.985Z,99.99
2018-06-12T02:40:13.002Z,99.99
2018-06-12T02:41:13.024Z,99.99
2018-06-12T02:42:13.041Z,99.99
2018-06-12T02:43:13.065Z,99.99
2018-06-12T02:44:13.090Z,99.99
2018-06-12T02:45:13.107Z,99.99
2018-06-12T02:46:13.127Z,99.99
2018-06-12T02:47:13.146Z,99.99
2018-06-12T02:48:13.169Z,99.99
2018-06-12T02:49:13.189Z,99.99
2018-06-12T02:50:13.210Z,99.99
2018-06-12T02:51:13.233Z,99.99
2018-06-12T02:52:13.249Z,99.99
2018-06-12T02:53:13.272Z,99.99
2018-06-12T02:54:13.295Z,99.99
2018-06-12T02:55:13.314Z,99.99
2018-06-12T02:56:13.357Z,99.99
2018-06-12T02:57:13.355Z,99.99
2018-06-12T02:58:13.376Z,99.99
2018-06-12T02:59:13.398Z,99.99
2018-06-12T03:00:13.420Z,99.99
2018-06-12T03:01:13.438Z,99.99
2018-06-12T03:02:13.463Z,99.99
2018-06-12T03:03:13.487Z,99.99
2018-06-12T03:04:13.502Z,99.99
2018-06-12T03:05:13.522Z,99.99
2018-06-12T03:06:13.543Z,99.99
2018-06-12T03:07:13.566Z,99.99
2018-06-12T03:08:13.589Z,99.99
2018-06-12T03:09:13.606Z,99.99
2018-06-12T03:10:13.629Z,99.99
2018-06-12T03:11:13.650Z,99.99
2018-06-12T03:12:13.675Z,99.99
2018-06-12T03:13:13.689Z,99.99
2018-06-12T03:14:13.713Z,99.99
2018-06-12T03:15:13.734Z,99.99
2018-06-12T03:16:13.756Z,99.99
2018-06-12T03:17:13.773Z,99.99
2018-06-12T03:18:13.797Z,99.99
2018-06-12T03:19:13.819Z,99.99
2018-06-12T03:20:13.840Z,99.99
2018-06-12T03:21:13.858Z,99.99
2018-06-12T03:22:13.881Z,99.99
2018-06-12T03:23:13.920Z,99.99
2018-06-12T03:24:13.923Z,99.99
2018-06-12T03:25:13.943Z,99.99
2018-06-12T03:26:13.963Z,99.99
2018-06-12T03:27:13.983Z,99.99
2018-06-12T03:28:14.005Z,99.99
2018-06-12T03:29:14.024Z,99.99
2018-06-12T03:30:14.049Z,99.99
2018-06-12T03:31:14.070Z,99.99
2018-06-12T03:32:14.091Z,99.99
2018-06-12T03:33:14.108Z,99.99
2018-06-12T03:34:14.132Z,99.99
2018-06-12T03:35:14.153Z,99.99
2018-06-12T03:36:14.173Z,99.99
2018-06-12T03:37:14.195Z,99.99
2018-06-12T03:38:14.213Z,99.99
2018-06-12T03:39:14.234Z,99.99
2018-06-12T03:40:14.258Z,99.99
2018-06-12T03:41:14.279Z,99.99
2018-06-12T03:42:14.299Z,99.99
2018-06-12T03:43:14.319Z,99.99
2018-06-12T03:44:14.342Z,99.99
2018-06-12T03:45:14.361Z,99.99
2018-06-12T03:46:14.384Z,99.99
2018-06-12T03:47:14.402Z,99.99
2018-06-12T03:48:14.422Z,99.99
2018-06-12T03:49:14.446Z,99.99
2018-06-12T03:50:14.464Z,99.99
2018-06-12T03:51:14.485Z,99.99
2018-06-12T03:52:14.506Z,99.99
2018-06-12T03:53:14.528Z,99.99
2018-06-12T03:54:14.551Z,99.99
2018-06-12T03:55:14.570Z,99.99
2018-06-12T03:56:14.597Z,99.99
2018-06-12T03:57:14.608Z,99.99
2018-06-12T03:58:14.632Z,99.99
2018-06-12T03:59:14.652Z,99.99
2018-06-12T04:00:14.673Z,99.99
2018-06-12T04:01:14.693Z,99.99
2018-06-12T04:02:14.714Z,99.99
2018-06-12T04:03:14.735Z,99.99
2018-06-12T04:04:14.758Z,99.99
2018-06-12T04:05:14.777Z,99.99
2018-06-12T04:06:14.797Z,99.99
2018-06-12T04:07:14.819Z,99.99
2018-06-12T04:08:14.843Z,99.99
2018-06-12T04:09:14.860Z,99.99
2018-06-12T04:10:14.884Z,99.99
2018-06-12T04:11:14.903Z,99.99
2018-06-12T04:12:14.926Z,99.99
2018-06-12T04:13:14.946Z,99.99
2018-06-12T04:14:14.969Z,99.99
2018-06-12T04:15:14.987Z,99.99
2018-06-12T04:16:15.010Z,99.99
2018-06-12T04:17:15.027Z,99.99
2018-06-12T04:18:15.051Z,99.99
2018-06-12T04:19:15.071Z,99.99
2018-06-12T04:20:15.090Z,99.99
2018-06-12T04:21:15.113Z,99.99
2018-06-12T04:22:15.132Z,99.99
2018-06-12T04:23:15.154Z,99.99
2018-06-12T04:24:15.174Z,99.99
2018-06-12T04:25:15.199Z,99.99
2018-06-12T04:26:15.220Z,99.99
2018-06-12T04:27:15.240Z,99.99
2018-06-12T04:28:15.258Z,99.99
2018-06-12T04:29:15.278Z,99.99
2018-06-12T04:30:15.301Z,99.99
2018-06-12T04:31:15.322Z,99.99
2018-06-12T04:32:15.345Z,99.99
2018-06-12T04:33:15.362Z,99.99
2018-06-12T04:34:15.435Z,99.99
2018-06-12T04:35:15.408Z,99.99
2018-06-12T04:36:15.429Z,99.99
2018-06-12T04:37:15.446Z,99.99
2018-06-12T04:38:15.468Z,99.99
2018-06-12T04:39:15.493Z,99.99
2018-06-12T04:40:15.512Z,99.99
2018-06-12T04:41:15.534Z,99.99
2018-06-12T04:42:15.553Z,99.99
2018-06-12T04:43:15.575Z,99.99
2018-06-12T04:44:15.597Z,99.99
2018-06-12T04:45:15.614Z,99.99
2018-06-12T04:46:15.640Z,99.99
2018-06-12T04:47:15.658Z,99.99
2018-06-12T04:48:15.679Z,99.99
2018-06-12T04:49:15.702Z,99.99
2018-06-12T04:50:15.723Z,99.99
2018-06-12T04:51:15.743Z,99.99
2018-06-12T04:52:15.766Z,99.99
2018-06-12T04:53:15.784Z,99.99
2018-06-12T04:54:15.806Z,99.99
2018-06-12T04:55:15.827Z,99.99
2018-06-12T04:56:15.851Z,99.99
2018-06-12T04:57:15.872Z,99.99
2018-06-12T04:58:15.894Z,99.99
2018-06-12T04:59:15.912Z,99.99
2018-06-12T05:00:15.935Z,99.99
2018-06-12T05:01:15.954Z,99.99
2018-06-12T05:02:15.976Z,99.99
2018-06-12T05:03:16.000Z,99.99
2018-06-12T05:04:16.022Z,99.99
2018-06-12T05:05:16.039Z,99.99
2018-06-12T05:06:16.061Z,99.99
2018-06-12T05:07:16.081Z,99.99
2018-06-12T05:08:16.105Z,99.99
2018-06-12T05:09:16.124Z,99.99
2018-06-12T05:10:16.146Z,99.99
2018-06-12T05:11:16.170Z,99.99
2018-06-12T05:12:16.191Z,99.99
2018-06-12T05:13:16.208Z,99.99
2018-06-12T05:14:16.233Z,99.99
2018-06-12T05:15:16.255Z,99.99
2018-06-12T05:16:16.275Z,99.99
2018-06-12T05:17:16.296Z,99.99
2018-06-12T05:18:16.315Z,99.99
2018-06-12T05:19:16.339Z,99.99
2018-06-12T05:20:16.361Z,99.99
2018-06-12T05:21:16.382Z,99.99
2018-06-12T05:22:16.405Z,99.99
2018-06-12T05:23:16.424Z,99.99
2018-06-12T05:24:16.448Z,99.99
2018-06-12T05:25:16.466Z,99.99
2018-06-12T05:26:16.485Z,99.99
2018-06-12T05:27:16.510Z,99.99
2018-06-12T05:28:16.531Z,99.99
2018-06-12T05:29:16.549Z,99.99
2018-06-12T05:30:16.571Z,99.99
2018-06-12T05:31:16.596Z,99.99
2018-06-12T05:32:16.617Z,99.99
2018-06-12T05:33:16.635Z,99.99
2018-06-12T05:34:16.661Z,99.99
2018-06-12T05:35:16.680Z,99.99
2018-06-12T05:36:16.702Z,99.99
2018-06-12T05:37:16.720Z,99.99
2018-06-12T05:38:16.744Z,99.99
2018-06-12T05:39:16.767Z,99.99
2018-06-12T05:40:16.788Z,99.99
2018-06-12T05:41:16.805Z,99.99
2018-06-12T05:42:16.828Z,99.99
2018-06-12T05:43:16.852Z,99.99
2018-06-12T05:44:16.874Z,99.99
2018-06-12T05:45:16.891Z,99.99
2018-06-12T05:46:16.913Z,99.99
2018-06-12T05:47:16.936Z,99.99
2018-06-12T05:48:16.959Z,99.99
2018-06-12T05:49:16.977Z,99.99
2018-06-12T05:50:17.001Z,99.99
2018-06-12T05:51:17.022Z,99.99
2018-06-12T05:52:17.046Z,99.99
2018-06-12T05:53:17.063Z,99.99
2018-06-12T05:54:17.085Z,99.99
2018-06-12T05:55:17.106Z,99.99
2018-06-12T05:56:17.132Z,99.99
2018-06-12T05:57:17.149Z,99.99
2018-06-12T05:58:17.171Z,99.99
2018-06-12T05:59:17.195Z,99.99
2018-06-12T06:00:17.218Z,99.99
2018-06-12T06:01:17.282Z,99.99
2018-06-12T06:02:17.258Z,99.99
2018-06-12T06:03:17.284Z,99.99
2018-06-12T06:04:17.304Z,99.99
2018-06-12T06:05:17.323Z,99.99
2018-06-12T06:06:17.347Z,99.99
2018-06-12T06:07:17.370Z,99.99
2018-06-12T06:08:17.391Z,99.99
2018-06-12T06:09:17.411Z,99.99
2018-06-12T06:10:17.492Z,99.99
2018-06-12T06:11:17.457Z,99.99
2018-06-12T06:12:17.477Z,99.99
2018-06-12T06:13:17.496Z,99.99
2018-06-12T06:14:17.521Z,99.99
2018-06-12T06:15:17.543Z,99.99
2018-06-12T06:16:17.563Z,99.99
2018-06-12T06:17:17.585Z,99.99
2018-06-12T06:18:17.606Z,99.99
2018-06-12T06:19:17.630Z,99.99
2018-06-12T06:20:17.652Z,99.99
2018-06-12T06:21:17.673Z,99.99
2018-06-12T06:22:17.691Z,99.99
2018-06-12T06:23:17.716Z,99.99
2018-06-12T06:24:17.736Z,99.99
2018-06-12T06:25:17.762Z,99.99
2018-06-12T06:26:17.781Z,99.99
2018-06-12T06:27:17.801Z,99.99
2018-06-12T06:28:17.823Z,99.99
2018-06-12T06:29:17.845Z,99.99
2018-06-12T06:30:17.869Z,99.99
2018-06-12T06:31:17.892Z,99.99
2018-06-12T06:32:17.917Z,99.99
2018-06-12T06:33:17.933Z,99.99
2018-06-12T06:34:17.959Z,99.99
2018-06-12T06:35:17.977Z,99.99
2018-06-12T06:36:18.019Z,99.99
2018-06-12T06:37:18.028Z,99.99
2018-06-12T06:38:18.043Z,99.99
2018-06-12T06:39:18.065Z,99.99
2018-06-12T06:40:18.093Z,99.99
2018-06-12T06:41:18.113Z,99.99
2018-06-12T06:42:18.133Z,99.99
2018-06-12T06:43:18.158Z,99.99
2018-06-12T06:44:18.178Z,99.99
2018-06-12T06:45:18.198Z,99.99
2018-06-12T06:46:18.223Z,99.99
2018-06-12T06:47:18.246Z,99.99
2018-06-12T06:48:18.266Z,99.99
2018-06-12T06:49:18.291Z,99.99
2018-06-12T06:50:18.312Z,99.99
2018-06-12T06:51:18.334Z,99.99
2018-06-12T06:52:18.358Z,99.99
2018-06-12T06:53:18.376Z,99.99
2018-06-12T06:54:18.403Z,99.99
2018-06-12T06:55:18.432Z,99.99
2018-06-12T06:56:18.444Z,99.99
2018-06-12T06:57:18.468Z,99.99
2018-06-12T06:58:18.491Z,99.99
2018-06-12T06:59:18.512Z,99.99
2018-06-12T07:00:18.587Z,99.99
2018-06-12T07:01:18.561Z,99.99
2018-06-12T07:02:18.581Z,99.99
2018-06-12T07:03:18.602Z,99.99
2018-06-12T07:04:18.623Z,99.99
2018-06-12T07:05:18.645Z,99.99
2018-06-12T07:06:18.669Z,99.99
2018-06-12T07:07:18.692Z,99.99
2018-06-12T07:08:18.713Z,99.99
2018-06-12T07:09:18.738Z,99.99
2018-06-12T07:10:18.760Z,99.99
2018-06-12T07:11:18.781Z,99.99
2018-06-12T07:12:18.805Z,98.33
2018-06-12T07:13:18.827Z,98.14
2018-06-12T07:14:18.848Z,99.68
2018-06-12T07:15:18.872Z,99.68
2018-06-12T07:16:18.896Z,98.72
2018-06-12T07:17:18.920Z,98.05
2018-06-12T07:18:18.940Z,97.28
2018-06-12T07:19:18.967Z,99.77
2018-06-12T07:20:18.988Z,99.99
2018-06-12T07:21:19.009Z,99.99
2018-06-12T07:22:19.168Z,99.99
2018-06-12T07:23:19.139Z,99.99
2018-06-12T07:24:19.083Z,99.99
2018-06-12T07:25:19.105Z,99.99
2018-06-12T07:26:19.127Z,99.73
2018-06-12T07:27:19.164Z,98.67
2018-06-12T07:28:19.174Z,97.71
2018-06-12T07:29:19.198Z,98.57
2018-06-12T07:30:19.226Z,98.57
2018-06-12T07:31:19.242Z,98.33
2018-06-12T07:32:19.359Z,97.28
2018-06-12T07:33:19.290Z,97.56
2018-06-12T07:34:19.312Z,96.80
2018-06-12T07:35:19.337Z,96.99
2018-06-12T07:36:19.361Z,96.85
2018-06-12T07:37:19.382Z,98.38
2018-06-12T07:38:19.408Z,98.10
2018-06-12T07:39:19.433Z,96.94
2018-06-12T07:40:19.508Z,97.33
2018-06-12T07:41:19.477Z,98.86
2018-06-12T07:42:19.497Z,99.49
2018-06-12T07:43:19.746Z,97.33
2018-06-12T07:44:19.549Z,96.80
2018-06-12T07:45:19.570Z,97.33
2018-06-12T07:46:19.593Z,97.04
2018-06-12T07:47:19.719Z,97.71
2018-06-12T07:48:19.637Z,96.66
2018-06-12T07:49:19.662Z,97.47
2018-06-12T07:50:19.685Z,96.61
2018-06-12T07:51:19.712Z,96.80
2018-06-12T07:52:19.732Z,95.75
2018-06-12T07:53:19.755Z,94.64
2018-06-12T07:54:19.776Z,95.21
2018-06-12T07:55:19.799Z,95.36
2018-06-12T07:56:19.824Z,94.69
2018-06-12T07:57:19.845Z,94.40
2018-06-12T07:58:19.872Z,92.58
2018-06-12T07:59:19.894Z,91.42
2018-06-12T08:00:19.926Z,91.24
2018-06-12T08:01:19.940Z,91.19
2018-06-12T08:02:19.961Z,90.66
2018-06-12T08:03:19.986Z,90.56
2018-06-12T08:04:20.010Z,90.32
2018-06-12T08:05:20.035Z,90.70
2018-06-12T08:06:20.061Z,89.55
2018-06-12T08:07:20.080Z,88.98
2018-06-12T08:08:20.104Z,88.40
2018-06-12T08:09:20.127Z,87.29
2018-06-12T08:10:20.154Z,86.29
2018-06-12T08:11:20.177Z,87.35
2018-06-12T08:12:20.198Z,87.25
2018-06-12T08:13:20.224Z,86.62
2018-06-12T08:14:20.245Z,86.96
2018-06-12T08:15:20.272Z,88.02
2018-06-12T08:16:20.295Z,86.96
2018-06-12T08:17:20.316Z,88.02
2018-06-12T08:18:20.342Z,87.44
2018-06-12T08:19:20.367Z,86.38
2018-06-12T08:20:20.387Z,86.54
2018-06-12T08:21:20.414Z,86.63
2018-06-12T08:22:20.435Z,87.35
2018-06-12T08:23:20.461Z,87.15
2018-06-12T08:24:20.587Z,87.05
2018-06-12T08:25:20.507Z,86.38
2018-06-12T08:26:20.530Z,87.49
2018-06-12T08:27:20.556Z,88.17
2018-06-12T08:28:20.579Z,89.03
2018-06-12T08:29:20.600Z,87.73
2018-06-12T08:30:20.717Z,87.30
2018-06-12T08:31:20.650Z,86.87
2018-06-12T08:32:20.675Z,86.48
2018-06-12T08:33:20.701Z,86.14
2018-06-12T08:34:20.722Z,85.85
2018-06-12T08:35:20.747Z,85.85
2018-06-12T08:36:20.768Z,84.18
2018-06-12T08:37:20.791Z,85.91
2018-06-12T08:38:20.815Z,84.56
2018-06-12T08:39:20.838Z,84.75
2018-06-12T08:40:20.865Z,85.33
2018-06-12T08:41:20.895Z,86.19
2018-06-12T08:42:20.913Z,86.48
2018-06-12T08:43:20.935Z,85.81
2018-06-12T08:44:20.958Z,85.62
2018-06-12T08:45:21.134Z,85.04
2018-06-12T08:46:21.010Z,84.75
2018-06-12T08:47:21.038Z,85.24
2018-06-12T08:48:21.054Z,85.24
2018-06-12T08:49:21.078Z,84.41
2018-06-12T08:50:21.104Z,84.37
2018-06-12T08:51:21.129Z,83.84
2018-06-12T08:52:21.154Z,83.16
2018-06-12T08:53:21.181Z,84.56
2018-06-12T08:54:21.195Z,84.47
2018-06-12T08:55:21.222Z,84.75
2018-06-12T08:56:21.245Z,84.08
2018-06-12T08:57:21.267Z,83.80
2018-06-12T08:58:21.291Z,83.84
2018-06-12T08:59:21.315Z,82.68
2018-06-12T09:00:21.343Z,82.97
2018-06-12T09:01:21.366Z,82.20
2018-06-12T09:02:21.387Z,81.24
2018-06-12T09:03:21.413Z,81.92
2018-06-12T09:04:21.439Z,82.87
2018-06-12T09:05:21.466Z,82.20
2018-06-12T09:06:21.484Z,82.01
2018-06-12T09:07:21.507Z,81.53
2018-06-12T09:08:21.534Z,81.53
2018-06-12T09:09:21.558Z,81.48
2018-06-12T09:10:21.579Z,80.51
2018-06-12T09:11:21.604Z,80.04
2018-06-12T09:12:21.628Z,79.46
2018-06-12T09:13:21.653Z,79.46
2018-06-12T09:14:21.684Z,79.27
2018-06-12T09:15:21.700Z,79.55
2018-06-12T09:16:21.728Z,78.17
2018-06-12T09:17:21.749Z,79.55
2018-06-12T09:18:21.776Z,79.36
2018-06-12T09:19:21.800Z,80.42
2018-06-12T09:20:21.825Z,78.59
2018-06-12T09:21:21.846Z,78.59
2018-06-12T09:22:21.871Z,77.92
2018-06-12T09:23:21.897Z,77.96
2018-06-12T09:24:21.921Z,76.81
2018-06-12T09:25:22.845Z,77.00
2018-06-12T09:26:21.972Z,76.67
2018-06-12T09:27:21.995Z,78.11
2018-06-12T09:28:22.022Z,78.59
2018-06-12T09:29:22.047Z,77.53
2018-06-12T09:30:22.075Z,78.02
2018-06-12T09:31:22.093Z,77.73
2018-06-12T09:32:22.116Z,77.63
2018-06-12T09:33:22.144Z,77.15
2018-06-12T09:34:22.299Z,76.32
2018-06-12T09:35:22.191Z,75.56
2018-06-12T09:36:22.218Z,75.84
2018-06-12T09:37:22.388Z,76.29
2018-06-12T09:38:22.266Z,77.40
2018-06-12T09:39:22.291Z,78.17
2018-06-12T09:40:22.316Z,78.59
2018-06-12T09:41:22.343Z,78.02
2018-06-12T09:42:22.383Z,78.17
2018-06-12T09:43:22.388Z,78.32
2018-06-12T09:44:22.459Z,79.86
2018-06-12T09:45:22.437Z,80.57
2018-06-12T09:46:22.602Z,80.47
2018-06-12T09:47:22.489Z,79.17
2018-06-12T09:48:22.581Z,78.50
2018-06-12T09:49:22.551Z,77.59
2018-06-12T09:50:22.561Z,78.55
2018-06-12T09:51:22.584Z,78.94
2018-06-12T09:52:22.610Z,78.59
2018-06-12T09:53:22.635Z,78.30
2018-06-12T09:54:22.657Z,78.40
2018-06-12T09:55:22.683Z,78.59
2018-06-12T09:56:22.709Z,78.34
2018-06-12T09:57:22.730Z,77.09
2018-06-12T09:58:22.754Z,75.94
2018-06-12T09:59:22.780Z,74.79
2018-06-12T10:00:22.804Z,75.94
2018-06-12T10:01:22.829Z,76.86
2018-06-12T10:02:22.856Z,77.50
2018-06-12T10:03:22.882Z,78.17
2018-06-12T10:04:22.976Z,78.69
2018-06-12T10:05:22.929Z,78.11
2018-06-12T10:06:22.955Z,76.96
2018-06-12T10:07:22.996Z,77.00
2018-06-12T10:08:23.002Z,76.52
2018-06-12T10:09:23.030Z,76.14
2018-06-12T10:10:23.051Z,75.46
2018-06-12T10:11:23.075Z,77.09
2018-06-12T10:12:23.101Z,76.57
2018-06-12T10:13:23.126Z,76.57
2018-06-12T10:14:23.148Z,76.71
2018-06-12T10:15:23.173Z,75.59
2018-06-12T10:16:23.199Z,73.67
2018-06-12T10:17:23.224Z,72.61
2018-06-12T10:18:23.248Z,72.71
2018-06-12T10:19:23.275Z,73.09
2018-06-12T10:20:23.300Z,72.80
2018-06-12T10:21:23.326Z,73.09
2018-06-12T10:22:23.350Z,73.47
2018-06-12T10:23:23.375Z,72.71
2018-06-12T10:24:23.397Z,73.47
2018-06-12T10:25:23.424Z,72.80
2018-06-12T10:26:23.448Z,73.28
2018-06-12T10:27:23.472Z,72.77
2018-06-12T10:28:23.497Z,73.00
2018-06-12T10:29:23.524Z,72.86
2018-06-12T10:30:23.546Z,73.92
2018-06-12T10:31:23.571Z,74.69
2018-06-12T10:32:23.596Z,74.40
2018-06-12T10:33:23.624Z,74.11
2018-06-12T10:34:23.648Z,74.05
2018-06-12T10:35:23.674Z,73.38
2018-06-12T10:36:23.699Z,73.32
2018-06-12T10:37:23.734Z,71.88
2018-06-12T10:38:23.747Z,71.94
2018-06-12T10:39:23.773Z,72.80
2018-06-12T10:40:23.798Z,73.77
2018-06-12T10:41:23.821Z,73.83
2018-06-12T10:42:23.849Z,73.83
2018-06-12T10:43:23.874Z,73.83
2018-06-12T10:44:23.898Z,73.47
2018-06-12T10:45:23.921Z,73.00
2018-06-12T10:46:23.946Z,72.03
2018-06-12T10:47:23.975Z,72.23
2018-06-12T10:48:24.003Z,72.61
2018-06-12T10:49:24.021Z,72.90
2018-06-12T10:50:24.048Z,73.00
2018-06-12T10:51:24.078Z,71.84
2018-06-12T10:52:24.101Z,72.13
2018-06-12T10:53:24.123Z,72.32
2018-06-12T10:54:24.147Z,72.52
2018-06-12T10:55:24.173Z,72.71
2018-06-12T10:56:24.238Z,71.75
2018-06-12T10:57:24.221Z,71.55
2018-06-12T10:58:24.247Z,71.94
2018-06-12T10:59:24.272Z,71.46
2018-06-12T11:00:24.301Z,72.38
2018-06-12T11:01:24.325Z,72.67
2018-06-12T11:02:24.350Z,73.44
2018-06-12T11:03:24.375Z,73.92
2018-06-12T11:04:24.399Z,73.92
2018-06-12T11:05:24.425Z,73.92
2018-06-12T11:06:24.450Z,73.44
2018-06-12T11:07:24.476Z,74.21
2018-06-12T11:08:24.497Z,73.83
2018-06-12T11:09:24.529Z,73.83
2018-06-12T11:10:24.551Z,74.11
2018-06-12T11:11:24.573Z,73.83
2018-06-12T11:12:24.599Z,74.05
2018-06-12T11:13:24.624Z,73.47
2018-06-12T11:14:24.649Z,73.35
2018-06-12T11:15:24.673Z,73.92
2018-06-12T11:16:25.000Z,74.02
2018-06-12T11:17:24.723Z,73.47
2018-06-12T11:18:24.748Z,73.44
2018-06-12T11:19:24.771Z,73.54
2018-06-12T11:20:24.797Z,74.40
2018-06-12T11:21:24.822Z,74.50
2018-06-12T11:22:24.940Z,74.40
2018-06-12T11:23:24.871Z,75.32
2018-06-12T11:24:24.896Z,75.07
2018-06-12T11:25:24.923Z,75.37
2018-06-12T11:26:24.943Z,75.37
2018-06-12T11:27:24.995Z,74.30
2018-06-12T11:28:24.996Z,74.50
2018-06-12T11:29:25.017Z,74.98
2018-06-12T11:30:25.045Z,74.40
2018-06-12T11:31:25.076Z,75.37
2018-06-12T11:32:25.092Z,75.37
2018-06-12T11:33:25.119Z,76.00
2018-06-12T11:34:25.142Z,76.77
2018-06-12T11:35:25.167Z,77.15
2018-06-12T11:36:25.191Z,77.53
2018-06-12T11:37:25.215Z,76.67
2018-06-12T11:38:25.489Z,76.09
2018-06-12T11:39:25.263Z,75.81
2018-06-12T11:40:25.291Z,76.19
2018-06-12T11:41:25.317Z,77.06
2018-06-12T11:42:25.336Z,77.15
2018-06-12T11:43:25.364Z,77.09
2018-06-12T11:44:25.487Z,77.06
2018-06-12T11:45:25.412Z,76.86
2018-06-12T11:46:25.434Z,77.06
2018-06-12T11:47:25.461Z,76.90
2018-06-12T11:48:25.484Z,77.00
2018-06-12T11:49:25.506Z,76.71
2018-06-12T11:50:25.531Z,76.32
2018-06-12T11:51:25.559Z,76.71
2018-06-12T11:52:25.580Z,77.25
2018-06-12T11:53:25.606Z,77.53
2018-06-12T11:54:25.629Z,77.53
2018-06-12T11:55:25.652Z,77.83
2018-06-12T11:56:25.677Z,78.06
2018-06-12T11:57:25.702Z,77.67
2018-06-12T11:58:25.727Z,77.76
2018-06-12T11:59:25.750Z,77.38
2018-06-12T12:00:25.776Z,77.23
2018-06-12T12:01:25.798Z,76.65
2018-06-12T12:02:25.828Z,75.59
2018-06-12T12:03:25.848Z,75.40
2018-06-12T12:04:25.872Z,74.92
2018-06-12T12:05:25.896Z,75.31
2018-06-12T12:06:25.922Z,74.54
2018-06-12T12:07:25.945Z,74.82
2018-06-12T12:08:25.969Z,75.31
2018-06-12T12:09:25.994Z,75.56
2018-06-12T12:10:26.020Z,76.14
2018-06-12T12:11:26.045Z,76.71
2018-06-12T12:12:26.066Z,76.26
2018-06-12T12:13:26.094Z,77.09
2018-06-12T12:14:26.117Z,77.33
2018-06-12T12:15:26.143Z,77.23
2018-06-12T12:16:26.168Z,77.23
2018-06-12T12:17:26.189Z,77.23
2018-06-12T12:18:26.217Z,76.26
2018-06-12T12:19:26.242Z,77.04
2018-06-12T12:20:26.266Z,77.51
2018-06-12T12:21:26.288Z,77.90
2018-06-12T12:22:26.312Z,78.28
2018-06-12T12:23:26.384Z,77.61
2018-06-12T12:24:26.362Z,78.06
2018-06-12T12:25:26.388Z,78.44
2018-06-12T12:26:26.410Z,78.06
2018-06-12T12:27:26.438Z,77.81
2018-06-12T12:28:26.464Z,77.86
2018-06-12T12:29:26.485Z,78.15
2018-06-12T12:30:26.510Z,77.86
2018-06-12T12:31:26.537Z,77.48
2018-06-12T12:32:26.560Z,77.61
2018-06-12T12:33:26.582Z,77.42
2018-06-12T12:34:26.609Z,76.65
2018-06-12T12:35:26.632Z,74.38
2018-06-12T12:36:26.657Z,73.71
2018-06-12T12:37:26.680Z,73.42
2018-06-12T12:38:26.705Z,74.09
2018-06-12T12:39:26.734Z,73.71
2018-06-12T12:40:26.758Z,73.90
2018-06-12T12:41:26.783Z,74.09
2018-06-12T12:42:26.808Z,74.38
2018-06-12T12:43:26.831Z,73.61
2018-06-12T12:44:26.860Z,73.61
2018-06-12T12:45:26.881Z,73.90
2018-06-12T12:46:26.908Z,73.71
2018-06-12T12:47:26.929Z,72.26
2018-06-12T12:48:27.032Z,72.74
2018-06-12T12:49:26.979Z,73.55
2018-06-12T12:50:27.007Z,72.74
2018-06-12T12:51:27.032Z,72.84
2018-06-12T12:52:27.110Z,71.97